Monday, November 24, 2014, 4:01 AM EST

KDYL, Doylestown Airport

Location: Doylestown, PA, United States Lat: 40.333
Local Time: 4:01 AM EST ( 9:01 GMT) Lon: -75.117
Time Zone: US/Eastern Elev: 393 ft

Show me the last for .
Show Decoded

2014-11-24 03:23 METAR KDYL 240823Z AUTO 15012G18KT 7SM RA OVC006 14/14 A2970 RMK AO2 CIG 004V009
                 P0008 T01390139 =
2014-11-24 03:02 METAR KDYL 240802Z AUTO 14007KT 110V180 6SM RA BR OVC003 13/13 A2972 RMK AO2
                 PRESFR P0003 T01280128 =
2014-11-24 02:42 METAR KDYL 240742Z AUTO 14005KT 6SM RA BR OVC002 12/12 A2975 RMK AO2 P0012
                 T01170117 =
2014-11-24 01:54 METAR KDYL 240654Z AUTO VRB04KT 5SM RA BR OVC004 11/11 A2980 RMK AO2 CIG 003V008
                 PRESFR SLP092 P0009 T01060106 =
2014-11-24 01:49 METAR KDYL 240649Z AUTO VRB03KT 5SM RA BR OVC004 11/11 A2981 RMK AO2 P0008 =
2014-11-24 01:34 METAR KDYL 240634Z AUTO VRB03KT 5SM -RA BR OVC008 10/10 A2982 RMK AO2 PRESFR
                 P0004 T01000100 =
2014-11-24 01:27 METAR KDYL 240627Z AUTO VRB03KT 5SM -RA BR SCT006 OVC010 10/10 A2983 RMK AO2
                 P0003 T01000100 =
2014-11-24 00:54 METAR KDYL 240554Z AUTO 00000KT 6SM -RA BR BKN017 BKN024 OVC032 09/09 A2986 RMK
                 AO2 PRESFR SLP114 P0002 60002 T00940094 10094 20061 58050 =
2014-11-24 00:47 METAR KDYL 240547Z AUTO 00000KT 5SM -RA BR BKN017 BKN024 OVC039 09/09 A2987 RMK
                 AO2 P0002 T00940094 =
2014-11-23 23:54 METAR KDYL 240454Z AUTO 00000KT 10SM -RA FEW030 OVC043 09/08 A2992 RMK AO2
                 RAB00E09B49 SLP136 P0000 T00940078 401280028 =
2014-11-23 22:54 METAR KDYL 240354Z AUTO 00000KT 10SM SCT050 OVC065 09/07 A2997 RMK AO2 PRESFR
                 SLP149 T00890067 =
2014-11-23 20:54 METAR KDYL 240154Z AUTO 13003KT 10SM FEW049 08/03 A3005 RMK AO2 SLP178 T00780033
                 =
2014-11-23 19:54 METAR KDYL 240054Z AUTO 14006KT 10SM CLR 08/00 A3008 RMK AO2 SLP189 T00780000 =
2014-11-23 17:54 METAR KDYL 232254Z AUTO 00000KT 10SM CLR 07/M03 A3011 RMK AO2 SLP199 T00721028 =
2014-11-23 16:54 METAR KDYL 232154Z AUTO 00000KT 10SM CLR 08/M03 A3010 RMK AO2 SLP198 T00831028 =
2014-11-23 15:54 METAR KDYL 232054Z AUTO 16004KT 10SM CLR 10/M03 A3012 RMK AO2 SLP203 T01001033
                 55005 =
2014-11-23 14:54 METAR KDYL 231954Z AUTO 17005KT 10SM CLR 12/M03 A3012 RMK AO2 SLP202 T01171033 =
2014-11-23 13:54 METAR KDYL 231854Z AUTO 18005KT 10SM CLR 13/M04 A3012 RMK AO2 SLP202 T01281039 =
2014-11-23 12:54 METAR KDYL 231754Z AUTO VRB05KT 10SM CLR 12/M04 A3014 RMK AO2 SLP208 T01171039
                 10117 20033 56023 =
2014-11-23 10:54 METAR KDYL 231554Z AUTO 00000KT 10SM FEW100 09/M04 A3018 RMK AO2 SLP222
                 T00891044 =
2014-11-23 09:54 METAR KDYL 231454Z AUTO VRB03KT 10SM CLR 07/M04 A3020 RMK AO2 SLP233 T00721044
                 50004 =
2014-11-23 08:54 METAR KDYL 231354Z AUTO 22004KT 10SM FEW100 05/M04 A3022 RMK AO2 SLP238
                 T00501044 =
2014-11-23 07:54 METAR KDYL 231254Z AUTO 00000KT 10SM OVC100 04/M04 A3020 RMK AO2 SLP234
                 T00391039 =
2014-11-23 06:54 METAR KDYL 231154Z AUTO 00000KT 10SM BKN090 OVC110 03/M05 A3019 RMK AO2 SLP229
                 T00331050 10044 20028 53005 =
2014-11-23 05:54 METAR KDYL 231054Z AUTO 00000KT 10SM BKN100 OVC110 03/M04 A3018 RMK AO2 SLP227
                 T00331044 =
2014-11-23 04:54 METAR KDYL 230954Z AUTO 22004KT 10SM OVC110 03/M05 A3017 RMK AO2 SLP222
                 T00331050 =

Support USWX by starting your Amazon purchase here.